sensor_id;sensor_type;location;lat;lon;timestamp;pressure;altitude;pressure_sealevel;temperature;humidity
21449;BME280;10885;52.830;13.788;2023-09-30T05:54:56;101863.03;;;13.30;93.51
21449;BME280;10885;52.830;13.788;2023-09-30T05:59:58;101873.06;;;13.39;93.38
21449;BME280;10885;52.830;13.788;2023-09-30T06:05:01;101866.91;;;13.49;92.83
21449;BME280;10885;52.830;13.788;2023-09-30T06:10:06;101877.38;;;13.64;92.53
21449;BME280;10885;52.830;13.788;2023-09-30T06:15:13;101886.94;;;13.78;91.25
21449;BME280;10885;52.830;13.788;2023-09-30T06:20:16;101895.81;;;13.95;90.57
21449;BME280;10885;52.830;13.788;2023-09-30T06:25:20;101901.25;;;14.11;89.61
21449;BME280;10885;52.830;13.788;2023-09-30T06:30:24;101915.25;;;14.28;88.87
21449;BME280;10885;52.830;13.788;2023-09-30T06:35:34;101903.91;;;14.38;87.82
21449;BME280;10885;52.830;13.788;2023-09-30T06:40:40;101910.09;;;14.53;86.88
21449;BME280;10885;52.830;13.788;2023-09-30T06:45:45;101916.81;;;14.51;85.86
21449;BME280;10885;52.830;13.788;2023-09-30T06:50:49;101917.44;;;14.74;85.46
21449;BME280;10885;52.830;13.788;2023-09-30T06:55:52;101939.38;;;15.07;83.29
21449;BME280;10885;52.830;13.788;2023-09-30T07:00:55;101936.16;;;15.51;81.21
21449;BME280;10885;52.830;13.788;2023-09-30T07:05:58;101945.00;;;15.97;79.82
21449;BME280;10885;52.830;13.788;2023-09-30T07:11:02;101928.41;;;16.21;77.68
21449;BME280;10885;52.830;13.788;2023-09-30T07:16:07;101950.72;;;16.34;77.48
21449;BME280;10885;52.830;13.788;2023-09-30T07:21:11;101952.53;;;16.22;76.59
21449;BME280;10885;52.830;13.788;2023-09-30T07:26:14;101955.81;;;16.04;77.01
21449;BME280;10885;52.830;13.788;2023-09-30T07:31:17;101967.91;;;15.77;77.92
21449;BME280;10885;52.830;13.788;2023-09-30T07:36:20;101964.97;;;15.58;78.52
21449;BME280;10885;52.830;13.788;2023-09-30T18:52:03;101991.97;;;13.84;71.09
21449;BME280;10885;52.830;13.788;2023-09-30T18:57:06;101988.16;;;13.79;70.85
21449;BME280;10885;52.830;13.788;2023-09-30T19:02:10;101995.00;;;13.78;70.64
21449;BME280;10885;52.830;13.788;2023-09-30T19:07:15;101999.16;;;13.76;70.69
21449;BME280;10885;52.830;13.788;2023-09-30T19:12:19;101993.72;;;13.60;71.71
21449;BME280;10885;52.830;13.788;2023-09-30T19:17:21;101999.06;;;13.27;72.74
21449;BME280;10885;52.830;13.788;2023-09-30T19:22:24;102007.81;;;13.06;74.48
21449;BME280;10885;52.830;13.788;2023-09-30T19:27:27;102006.78;;;13.04;74.80
21449;BME280;10885;52.830;13.788;2023-09-30T19:32:30;102015.16;;;13.01;74.62
21449;BME280;10885;52.830;13.788;2023-09-30T19:37:32;102010.94;;;13.02;74.47
21449;BME280;10885;52.830;13.788;2023-09-30T19:42:35;102012.38;;;12.98;74.52
21449;BME280;10885;52.830;13.788;2023-09-30T19:47:38;102004.97;;;12.91;75.55
21449;BME280;10885;52.830;13.788;2023-09-30T19:52:41;102003.59;;;12.84;75.56
21449;BME280;10885;52.830;13.788;2023-09-30T19:57:44;101998.44;;;12.72;76.17
21449;BME280;10885;52.830;13.788;2023-09-30T20:02:47;102004.78;;;12.66;76.47
21449;BME280;10885;52.830;13.788;2023-09-30T20:07:50;101999.41;;;12.63;76.85
21449;BME280;10885;52.830;13.788;2023-09-30T20:12:53;102005.00;;;12.69;76.88
21449;BME280;10885;52.830;13.788;2023-09-30T20:17:55;102005.72;;;12.78;76.21
21449;BME280;10885;52.830;13.788;2023-09-30T20:22:58;101999.91;;;12.81;75.85
21449;BME280;10885;52.830;13.788;2023-09-30T20:28:01;102010.41;;;12.84;76.32
21449;BME280;10885;52.830;13.788;2023-09-30T20:33:07;102005.22;;;12.94;75.65
21449;BME280;10885;52.830;13.788;2023-09-30T20:38:10;102006.31;;;12.98;75.16
21449;BME280;10885;52.830;13.788;2023-09-30T20:43:13;102000.84;;;12.93;74.58
21449;BME280;10885;52.830;13.788;2023-09-30T20:48:16;102007.94;;;12.85;74.96
21449;BME280;10885;52.830;13.788;2023-09-30T20:53:19;101994.31;;;12.74;75.88
21449;BME280;10885;52.830;13.788;2023-09-30T20:58:22;102005.56;;;12.65;76.23
21449;BME280;10885;52.830;13.788;2023-09-30T21:03:24;102007.00;;;12.61;76.26
21449;BME280;10885;52.830;13.788;2023-09-30T21:08:27;102007.41;;;12.55;76.56
21449;BME280;10885;52.830;13.788;2023-09-30T21:13:30;101999.16;;;12.60;76.32
21449;BME280;10885;52.830;13.788;2023-09-30T21:18:33;102002.31;;;12.67;76.22
21449;BME280;10885;52.830;13.788;2023-09-30T21:23:35;102006.81;;;12.70;76.07
21449;BME280;10885;52.830;13.788;2023-09-30T21:28:39;101998.41;;;12.61;76.29
21449;BME280;10885;52.830;13.788;2023-09-30T21:33:48;102010.53;;;12.51;77.22
21449;BME280;10885;52.830;13.788;2023-09-30T21:38:51;102006.66;;;12.57;76.70
21449;BME280;10885;52.830;13.788;2023-09-30T21:43:53;102006.09;;;12.61;75.87
